Greene, Rhode Island
Current Conditions -  °F | °C
As of 2:51 PM on Monday 24 Nov 2014 (Local Time) from KPVD Reporting Station
Haze Haze  
Wind Chill: 63°   Ceiling: 700
Heat Index: 63°   Visibility: 2.5mi
Dew Point: 61°   Wind: 18mph
Humidity: 93%   Direction: 200°SSW
Pressure: 29.65"   Gusts: 37mph
Location:  41.7°N, 71.74°W
Report Text: KPVD 241951Z 20016G32KT 2 1/2SM BR OVC007 17/16 A2965 RMK AO2 PK WND 21033/1934 SFC VIS 3 RAE1857B37E47 SLP041 P0000 T01720161
Loading
Personal Weather Stations






























Interactive Weather Map New forecast layout! Learn more

10-Day Weather Forecast

Advertisements
Track Severe Weather on mobile